createdAt,value
2019-03-29T00:02:02.327Z,25.05
2019-03-29T00:04:30.396Z,17.55
2019-03-29T00:06:58.467Z,26.20
2019-03-29T00:09:26.239Z,25.82
2019-03-29T00:11:53.997Z,19.77
2019-03-29T00:14:23.459Z,20.02
2019-03-29T00:16:51.305Z,27.40
2019-03-29T00:19:19.535Z,26.15
2019-03-29T00:21:47.302Z,20.45
2019-03-29T00:24:15.294Z,19.52
2019-03-29T00:26:43.033Z,16.23
2019-03-29T00:29:10.794Z,20.80
2019-03-29T00:31:39.368Z,21.42
2019-03-29T00:34:07.253Z,17.65
2019-03-29T00:36:35.211Z,19.20
2019-03-29T00:39:05.023Z,20.23
2019-03-29T00:41:32.490Z,21.33
2019-03-29T00:44:00.350Z,22.45
2019-03-29T00:46:28.927Z,19.52
2019-03-29T00:48:56.698Z,20.00
2019-03-29T00:51:25.196Z,23.42
2019-03-29T00:53:53.250Z,21.27
2019-03-29T00:56:20.910Z,20.80
2019-03-29T00:58:48.885Z,23.85
2019-03-29T01:01:17.461Z,24.12
2019-03-29T01:03:45.323Z,22.93
2019-03-29T01:06:15.444Z,29.05
2019-03-29T01:08:43.000Z,25.40
2019-03-29T01:11:10.672Z,29.82
2019-03-29T01:13:38.531Z,34.38
2019-03-29T01:16:06.291Z,31.45
2019-03-29T01:18:35.080Z,33.45
2019-03-29T01:21:02.847Z,39.05
2019-03-29T01:23:30.608Z,68.78
2019-03-29T01:25:58.377Z,79.58
2019-03-29T01:28:26.140Z,61.73
2019-03-29T01:30:53.896Z,59.48
2019-03-29T01:33:21.665Z,56.88
2019-03-29T01:35:50.347Z,53.42
2019-03-29T01:38:22.229Z,59.83
2019-03-29T01:40:47.520Z,56.00
2019-03-29T01:43:15.281Z,57.93
2019-03-29T01:45:43.039Z,55.50
2019-03-29T01:48:10.700Z,60.10
2019-03-29T01:50:38.574Z,49.42
2019-03-29T01:53:07.148Z,53.48
2019-03-29T01:55:34.503Z,58.80
2019-03-29T01:58:02.370Z,59.95
2019-03-29T02:00:31.672Z,52.13
2019-03-29T02:02:59.437Z,61.10
2019-03-29T02:05:27.767Z,53.23
2019-03-29T02:07:55.578Z,53.65
2019-03-29T02:10:23.238Z,59.70
